Time;durP1;ratioP1;P1;durP2;ratioP2;P2;SDS_P1;SDS_P2;PMS_P1;PMS_P2;Temp;Humidity;BMP_temperature;BMP_pressure;BME280_temperature;BME280_humidity;BME280_pressure;Samples;Min_cycle;Max_cycle;Signal;HPM_P1;HPM_P2
2021/05/13 00:02:25;;;;;;;16.30;12.18;;;10.80;99.40;;;;;;5084497;28;20718;-88
2021/05/13 00:04:51;;;;;;;14.38;11.60;;;10.80;99.50;;;;;;5086534;28;20205;-87
2021/05/13 00:07:18;;;;;;;12.27;10.63;;;10.90;99.10;;;;;;5080645;28;20311;-87
2021/05/13 00:09:47;;;;;;;12.95;11.20;;;10.80;98.60;;;;;;5085611;28;20237;-87
2021/05/13 00:12:26;;;;;;;13.98;11.27;;;10.70;98.70;;;;;;5081508;28;20212;-87
2021/05/13 00:14:53;;;;;;;15.15;11.85;;;10.80;99.20;;;;;;5086916;28;20192;-87
2021/05/13 00:17:19;;;;;;;14.38;10.63;;;10.80;98.70;;;;;;5092628;28;20233;-88
2021/05/13 00:19:46;;;;;;;14.20;10.70;;;10.90;98.50;;;;;;5076512;28;20196;-87
2021/05/13 00:22:12;;;;;;;14.23;10.90;;;10.90;98.20;;;;;;5076702;28;20231;-87
2021/05/13 00:24:39;;;;;;;12.10;10.90;;;10.80;98.50;;;;;;5083976;28;20201;-87
2021/05/13 00:27:07;;;;;;;12.10;10.45;;;10.80;98.60;;;;;;5076802;28;20255;-87
2021/05/13 00:29:34;;;;;;;13.30;11.18;;;10.80;98.50;;;;;;5092172;28;20285;-87
2021/05/13 00:32:00;;;;;;;12.70;10.75;;;10.80;98.60;;;;;;5082945;28;20258;-88
2021/05/13 00:34:27;;;;;;;12.32;10.38;;;10.80;98.50;;;;;;5089859;28;20212;-87
2021/05/13 00:36:53;;;;;;;15.02;11.30;;;10.80;99.00;;;;;;5082346;28;20724;-88
2021/05/13 00:39:20;;;;;;;13.25;10.02;;;10.80;98.50;;;;;;5082461;28;20197;-87
2021/05/13 00:41:46;;;;;;;11.82;9.52;;;10.70;98.80;;;;;;5079739;28;20692;-87
2021/05/13 00:44:14;;;;;;;12.05;9.68;;;10.50;98.50;;;;;;5083157;28;20269;-88
2021/05/13 00:46:40;;;;;;;12.43;9.80;;;10.60;98.90;;;;;;5075470;28;20235;-88
2021/05/13 00:49:08;;;;;;;11.50;9.50;;;10.60;98.50;;;;;;5089883;28;20725;-88
2021/05/13 00:51:34;;;;;;;15.48;10.10;;;10.60;98.90;;;;;;5079231;28;20224;-87
2021/05/13 00:54:01;;;;;;;12.55;10.20;;;10.70;98.50;;;;;;5087270;28;20636;-87
2021/05/13 00:56:28;;;;;;;11.45;10.30;;;10.60;98.60;;;;;;5079883;28;20239;-88
2021/05/13 00:58:57;;;;;;;14.20;10.52;;;10.70;99.30;;;;;;5075147;28;20217;-87
2021/05/13 01:01:26;;;;;;;12.40;10.43;;;10.70;98.50;;;;;;5076576;28;20224;-87
2021/05/13 01:03:52;;;;;;;11.70;9.88;;;10.90;98.30;;;;;;5074372;28;20209;-88
2021/05/13 01:06:19;;;;;;;14.50;10.25;;;10.90;97.70;;;;;;5075825;28;20229;-87
2021/05/13 01:08:48;;;;;;;12.68;9.57;;;10.80;97.70;;;;;;5076701;28;20198;-87
2021/05/13 01:11:15;;;;;;;11.70;10.27;;;10.90;98.00;;;;;;5079615;28;20235;-87
2021/05/13 01:13:58;;;;;;;11.68;10.10;;;10.80;97.70;;;;;;5076208;28;20197;-87
2021/05/13 01:16:33;;;;;;;13.07;10.95;;;10.60;97.80;;;;;;5075711;28;20240;-87
2021/05/13 01:19:00;;;;;;;13.68;10.85;;;10.60;98.80;;;;;;5074672;28;20201;-88
2021/05/13 01:21:27;;;;;;;11.57;10.32;;;10.40;99.00;;;;;;5087283;28;20298;-87
2021/05/13 01:23:54;;;;;;;10.98;9.88;;;10.50;99.20;;;;;;5078187;28;20204;-87
2021/05/13 01:26:21;;;;;;;11.77;9.60;;;10.40;99.10;;;;;;5078745;28;20274;-87
2021/05/13 01:28:47;;;;;;;11.75;10.02;;;10.40;99.20;;;;;;5081247;28;20334;-87
2021/05/13 01:31:18;;;;;;;13.65;10.20;;;10.40;99.30;;;;;;5077556;28;20575;-87
2021/05/13 01:33:45;;;;;;;11.50;10.23;;;10.50;99.70;;;;;;5082142;28;20235;-87
2021/05/13 01:36:14;;;;;;;10.50;9.48;;;10.70;99.00;;;;;;5059590;28;20229;-88
2021/05/13 01:38:42;;;;;;;10.85;9.73;;;10.70;98.60;;;;;;5078104;28;20287;-88
2021/05/13 01:41:09;;;;;;;13.50;10.68;;;10.70;98.60;;;;;;5079734;28;20243;-87
2021/05/13 01:43:39;;;;;;;13.05;10.35;;;10.70;98.50;;;;;;5079062;28;20217;-87
2021/05/13 01:46:06;;;;;;;12.15;10.15;;;10.60;98.90;;;;;;5079218;28;20236;-87
2021/05/13 01:48:35;;;;;;;11.60;10.40;;;10.50;99.50;;;;;;5077484;28;20265;-87
2021/05/13 01:51:03;;;;;;;12.25;10.18;;;10.60;99.60;;;;;;5078637;28;20260;-87
2021/05/13 01:53:32;;;;;;;12.77;9.93;;;10.60;99.50;;;;;;5077379;28;20228;-87
2021/05/13 01:56:00;;;;;;;12.18;9.98;;;10.70;99.50;;;;;;5062918;28;20617;-87
2021/05/13 01:58:27;;;;;;;10.88;9.77;;;10.80;99.10;;;;;;5083418;28;20265;-87
2021/05/13 02:00:53;;;;;;;11.18;9.45;;;10.80;98.70;;;;;;5072006;28;20251;-88
2021/05/13 02:03:25;;;;;;;11.05;9.65;;;10.80;98.90;;;;;;5085397;28;20254;-87
2021/05/13 02:05:51;;;;;;;11.38;9.70;;;10.80;99.00;;;;;;5078303;28;20233;-87
2021/05/13 02:08:18;;;;;;;11.90;9.70;;;10.90;98.90;;;;;;5079349;28;20204;-87
2021/05/13 02:10:44;;;;;;;13.50;9.93;;;11.00;98.40;;;;;;5072292;28;20303;-87
2021/05/13 02:13:12;;;;;;;9.95;8.95;;;11.00;98.00;;;;;;5078183;28;20230;-87
2021/05/13 02:15:38;;;;;;;11.50;10.13;;;11.00;97.60;;;;;;5081087;28;20198;-88
2021/05/13 02:18:06;;;;;;;11.52;9.48;;;10.90;97.80;;;;;;5081586;28;20209;-87
2021/05/13 02:20:33;;;;;;;9.95;8.95;;;10.80;98.10;;;;;;5068628;28;20212;-89
2021/05/13 02:23:01;;;;;;;9.77;8.77;;;10.70;98.40;;;;;;5090168;28;20200;-87
2021/05/13 02:25:31;;;;;;;11.80;8.60;;;10.80;98.70;;;;;;5082842;28;20684;-88
2021/05/13 02:27:58;;;;;;;12.15;8.90;;;10.90;98.30;;;;;;5083717;28;20213;-87
2021/05/13 02:30:26;;;;;;;9.75;8.73;;;10.90;98.20;;;;;;5083726;28;20227;-88
2021/05/13 02:32:53;;;;;;;11.57;8.57;;;10.80;98.10;;;;;;5082903;28;20232;-87
2021/05/13 02:35:20;;;;;;;9.57;8.32;;;10.80;98.50;;;;;;5084861;28;20194;-87
2021/05/13 02:37:47;;;;;;;10.43;8.52;;;10.90;98.00;;;;;;5088664;28;20228;-87
2021/05/13 02:40:15;;;;;;;10.60;8.70;;;10.90;97.60;;;;;;5080431;28;20202;-87
2021/05/13 02:42:43;;;;;;;12.45;8.80;;;10.90;97.50;;;;;;5084337;28;20221;-87
2021/05/13 02:45:11;;;;;;;10.45;8.32;;;10.90;97.80;;;;;;5076668;28;20208;-87
2021/05/13 02:47:39;;;;;;;9.70;8.70;;;10.80;98.10;;;;;;5077276;28;20225;-87
2021/05/13 02:50:08;;;;;;;11.00;8.77;;;10.90;98.00;;;;;;5084942;28;20250;-86
2021/05/13 02:52:34;;;;;;;10.70;8.48;;;10.90;97.50;;;;;;5080976;28;20277;-87
2021/05/13 02:55:01;;;;;;;10.32;8.35;;;10.90;97.70;;;;;;5076421;28;20201;-88
2021/05/13 02:57:27;;;;;;;9.73;8.70;;;10.80;97.60;;;;;;5082791;28;20224;-87
2021/05/13 02:59:58;;;;;;;10.00;8.68;;;10.70;97.70;;;;;;5081656;28;20200;-87
2021/05/13 03:02:24;;;;;;;10.25;8.82;;;10.70;98.60;;;;;;5082911;28;20420;-87
2021/05/13 03:04:52;;;;;;;13.23;8.43;;;10.70;98.40;;;;;;5083237;28;20189;-87
2021/05/13 03:07:18;;;;;;;9.90;8.90;;;10.70;98.50;;;;;;5073122;28;20229;-87
2021/05/13 03:09:48;;;;;;;11.32;9.00;;;10.70;98.00;;;;;;5069836;28;20664;-87
2021/05/13 03:12:15;;;;;;;10.68;8.70;;;10.70;98.30;;;;;;5076482;28;20233;-89
2021/05/13 03:14:41;;;;;;;9.93;8.80;;;10.60;97.90;;;;;;5084431;28;20726;-88
2021/05/13 03:17:08;;;;;;;10.27;9.18;;;10.60;98.70;;;;;;5087786;28;20224;-87
2021/05/13 03:19:40;;;;;;;11.65;8.80;;;10.70;98.10;;;;;;5075963;28;20288;-87
2021/05/13 03:22:11;;;;;;;11.02;8.77;;;10.70;98.10;;;;;;5085544;28;20243;-87
2021/05/13 03:24:43;;;;;;;11.18;9.02;;;10.80;98.10;;;;;;5081728;28;20731;-87
2021/05/13 03:27:13;;;;;;;9.15;8.20;;;10.80;97.60;;;;;;5080333;28;20221;-87
2021/05/13 03:29:39;;;;;;;11.30;9.55;;;10.70;98.10;;;;;;5078347;28;20347;-87
2021/05/13 03:32:06;;;;;;;9.73;8.73;;;10.80;97.60;;;;;;5072152;28;20244;-87
2021/05/13 03:34:32;;;;;;;10.00;8.48;;;10.70;97.70;;;;;;5082052;28;20216;-87
2021/05/13 03:36:59;;;;;;;10.27;9.10;;;10.70;97.80;;;;;;5079487;28;20225;-87
2021/05/13 03:39:26;;;;;;;9.95;8.95;;;10.70;97.60;;;;;;5077008;28;20205;-86
2021/05/13 03:41:53;;;;;;;11.10;9.05;;;10.70;98.00;;;;;;5078553;28;20236;-87
2021/05/13 03:44:19;;;;;;;9.63;8.68;;;10.70;97.30;;;;;;5077170;28;20261;-87
2021/05/13 03:46:45;;;;;;;9.43;8.43;;;10.60;97.60;;;;;;5080992;28;20233;-86
2021/05/13 03:49:12;;;;;;;11.70;8.88;;;10.60;98.00;;;;;;5085184;28;20675;-87
2021/05/13 03:51:38;;;;;;;12.18;9.25;;;10.60;98.10;;;;;;5076122;28;20238;-87
2021/05/13 03:54:05;;;;;;;10.15;8.85;;;10.60;97.80;;;;;;5076207;28;20194;-87
2021/05/13 03:56:33;;;;;;;10.95;8.50;;;10.60;97.70;;;;;;5077125;28;20283;-87
2021/05/13 03:59:06;;;;;;;10.20;9.13;;;10.60;97.90;;;;;;5072697;28;20216;-87
2021/05/13 04:01:45;;;;;;;11.70;8.73;;;10.40;97.80;;;;;;5068513;28;20230;-87
2021/05/13 04:04:12;;;;;;;12.98;9.05;;;10.40;98.10;;;;;;5075574;28;20609;-87
2021/05/13 04:06:39;;;;;;;10.55;8.90;;;10.40;98.40;;;;;;5080720;28;20225;-87
2021/05/13 04:09:08;;;;;;;9.45;8.18;;;10.40;98.70;;;;;;5083111;28;20204;-86
2021/05/13 04:11:36;;;;;;;9.05;7.90;;;10.40;98.90;;;;;;5081982;28;20232;-86
2021/05/13 04:14:02;;;;;;;8.68;7.78;;;10.60;98.00;;;;;;5086252;28;20192;-86
2021/05/13 04:16:29;;;;;;;11.35;9.05;;;10.60;98.00;;;;;;5087656;28;20224;-86
2021/05/13 04:18:56;;;;;;;11.88;8.27;;;10.60;97.90;;;;;;5081290;28;20201;-86
2021/05/13 04:21:22;;;;;;;9.70;8.13;;;10.50;97.90;;;;;;5072052;28;20229;-86
2021/05/13 04:23:49;;;;;;;8.85;7.65;;;10.60;98.10;;;;;;5071244;28;20198;-87
2021/05/13 04:26:15;;;;;;;8.90;8.00;;;10.70;97.90;;;;;;5084264;28;20781;-87
2021/05/13 04:28:43;;;;;;;9.70;8.52;;;10.80;96.90;;;;;;5069924;28;20228;-86
2021/05/13 04:31:09;;;;;;;10.00;8.32;;;10.70;96.90;;;;;;5080988;28;20228;-87
2021/05/13 04:33:36;;;;;;;9.20;8.30;;;10.80;97.60;;;;;;5075846;28;20208;-86
2021/05/13 04:36:03;;;;;;;9.48;8.43;;;10.70;97.30;;;;;;5079859;28;20221;-86
2021/05/13 04:38:30;;;;;;;10.80;8.50;;;10.50;97.70;;;;;;5087192;28;20214;-87
2021/05/13 04:40:56;;;;;;;9.30;7.95;;;10.50;98.10;;;;;;5080372;28;20237;-86
2021/05/13 04:43:23;;;;;;;8.90;8.00;;;10.40;98.30;;;;;;5081383;28;20204;-86
2021/05/13 04:45:51;;;;;;;9.35;8.05;;;10.50;98.50;;;;;;5090009;28;20284;-87
2021/05/13 04:48:22;;;;;;;8.85;8.00;;;10.50;98.80;;;;;;5087142;28;20201;-87
2021/05/13 04:50:51;;;;;;;9.95;7.93;;;10.50;98.30;;;;;;5074560;28;20251;-86
2021/05/13 04:53:17;;;;;;;10.73;8.15;;;10.70;97.50;;;;;;5092239;28;20211;-87
2021/05/13 04:55:45;;;;;;;9.40;7.93;;;10.60;96.90;;;;;;5087117;28;20201;-88
2021/05/13 04:58:11;;;;;;;9.52;7.90;;;10.60;97.50;;;;;;5086855;28;20236;-87
2021/05/13 05:00:39;;;;;;;10.82;8.88;;;10.60;97.30;;;;;;5092077;28;20586;-88
2021/05/13 05:03:06;;;;;;;9.55;8.13;;;10.40;97.70;;;;;;5078570;28;20205;-86
2021/05/13 05:05:33;;;;;;;9.35;8.20;;;10.40;98.20;;;;;;5079444;28;20201;-87
2021/05/13 05:08:00;;;;;;;8.57;7.68;;;10.50;98.50;;;;;;5085567;28;20504;-87
2021/05/13 05:10:26;;;;;;;13.45;8.00;;;10.70;97.60;;;;;;5080299;28;20220;-86
2021/05/13 05:12:53;;;;;;;10.90;7.88;;;10.70;97.10;;;;;;5085938;28;20266;-86
2021/05/13 05:15:19;;;;;;;8.95;7.28;;;10.60;97.50;;;;;;5083239;28;20223;-87
2021/05/13 05:17:48;;;;;;;11.38;7.80;;;10.60;98.00;;;;;;5076259;28;20248;-86
2021/05/13 05:20:16;;;;;;;11.27;7.70;;;10.60;97.40;;;;;;5080311;28;20276;-87
2021/05/13 05:22:47;;;;;;;9.50;7.50;;;10.70;97.40;;;;;;5067538;28;20217;-86
2021/05/13 05:25:14;;;;;;;7.85;6.97;;;10.70;97.40;;;;;;5077921;28;20198;-87
2021/05/13 05:27:40;;;;;;;10.63;7.90;;;10.70;97.40;;;;;;5078804;28;20280;-86
2021/05/13 05:30:08;;;;;;;9.43;8.23;;;10.70;97.40;;;;;;5078835;28;20235;-86
2021/05/13 05:32:42;;;;;;;8.45;7.57;;;10.70;97.60;;;;;;5077220;28;20224;-86
2021/05/13 05:35:15;;;;;;;8.65;7.75;;;10.80;97.70;;;;;;5081325;28;20251;-87
2021/05/13 05:37:43;;;;;;;9.90;7.78;;;11.00;97.00;;;;;;5078766;28;20228;-86
2021/05/13 05:40:12;;;;;;;8.85;7.60;;;11.10;96.00;;;;;;5070276;28;20221;-86
2021/05/13 05:42:39;;;;;;;10.27;7.50;;;11.10;96.00;;;;;;5080368;28;20221;-87
2021/05/13 05:45:07;;;;;;;8.70;7.80;;;11.30;96.00;;;;;;5074924;28;20439;-87
2021/05/13 05:47:35;;;;;;;8.75;7.70;;;11.20;96.00;;;;;;5075308;28;20222;-87
2021/05/13 05:50:01;;;;;;;12.18;8.05;;;11.10;96.00;;;;;;5077274;28;20714;-88
2021/05/13 05:52:28;;;;;;;9.02;7.68;;;11.20;96.00;;;;;;5074001;28;20266;-88
2021/05/13 05:54:56;;;;;;;9.18;7.45;;;11.20;96.00;;;;;;5074434;28;20207;-87
2021/05/13 05:57:23;;;;;;;10.77;7.93;;;11.20;96.10;;;;;;5049717;28;20225;-87
2021/05/13 05:59:49;;;;;;;11.55;7.63;;;11.20;96.80;;;;;;5072835;28;20220;-88
2021/05/13 06:02:16;;;;;;;10.18;8.35;;;11.40;96.00;;;;;;5068547;28;20584;-87
2021/05/13 06:04:42;;;;;;;9.70;8.70;;;11.40;96.10;;;;;;5071638;28;20640;-87
2021/05/13 06:07:08;;;;;;;9.48;8.35;;;11.40;96.00;;;;;;5067809;28;20597;-86
2021/05/13 06:09:36;;;;;;;9.98;8.02;;;11.40;96.00;;;;;;5072581;28;20206;-86
2021/05/13 06:12:07;;;;;;;9.48;8.25;;;11.60;96.10;;;;;;5076306;28;20289;-87
2021/05/13 06:14:33;;;;;;;9.98;8.20;;;11.40;95.70;;;;;;5075586;28;20204;-86
2021/05/13 06:17:00;;;;;;;9.70;8.23;;;11.40;96.00;;;;;;5076019;28;20685;-87
2021/05/13 06:19:27;;;;;;;9.63;7.70;;;11.60;96.10;;;;;;5076137;28;21403;-86
2021/05/13 06:21:54;;;;;;;12.70;9.10;;;11.70;95.50;;;;;;5073680;28;20229;-85
2021/05/13 06:24:20;;;;;;;10.18;7.95;;;11.70;96.00;;;;;;5072566;28;20209;-88
2021/05/13 06:26:56;;;;;;;10.00;8.68;;;11.80;95.80;;;;;;5075151;28;20241;-87
2021/05/13 06:29:23;;;;;;;9.50;8.45;;;12.00;94.60;;;;;;5085340;28;20221;-86
2021/05/13 06:31:50;;;;;;;11.25;8.05;;;12.10;95.40;;;;;;5083923;28;20252;-86
2021/05/13 06:34:17;;;;;;;11.43;8.23;;;12.10;95.10;;;;;;5078572;28;20200;-87
2021/05/13 06:36:44;;;;;;;11.00;8.00;;;12.20;94.70;;;;;;5079246;28;20223;-86
2021/05/13 06:39:11;;;;;;;9.65;8.10;;;12.20;94.20;;;;;;5093959;28;20197;-88
2021/05/13 06:41:39;;;;;;;9.38;7.82;;;12.30;94.10;;;;;;5082560;28;20223;-86
2021/05/13 06:44:11;;;;;;;13.70;8.98;;;12.40;94.20;;;;;;5081045;28;20296;-85
2021/05/13 06:46:40;;;;;;;9.20;7.38;;;12.30;94.50;;;;;;5082103;28;20300;-85
2021/05/13 06:49:06;;;;;;;9.23;7.68;;;12.40;94.10;;;;;;5076634;28;20197;-85
2021/05/13 06:51:39;;;;;;;8.90;8.00;;;12.60;93.40;;;;;;5075765;28;20225;-86
2021/05/13 06:54:06;;;;;;;10.48;7.53;;;12.80;92.80;;;;;;5073151;28;20311;-86
2021/05/13 06:56:33;;;;;;;11.10;8.27;;;12.80;92.20;;;;;;5070027;28;20222;-86
2021/05/13 06:59:00;;;;;;;9.68;7.25;;;12.80;91.80;;;;;;5072536;28;20296;-86
2021/05/13 07:01:29;;;;;;;8.27;7.13;;;12.90;92.80;;;;;;5079936;28;20264;-87
2021/05/13 07:04:04;;;;;;;8.13;7.32;;;13.00;91.90;;;;;;5079369;28;20262;-88
2021/05/13 07:10:11;;;;;;;9.75;7.53;;;13.40;91.80;;;;;;5054394;28;20253;-87
2021/05/13 07:12:38;;;;;;;8.20;7.40;;;13.70;91.10;;;;;;5032751;28;20277;-88
2021/05/13 07:15:06;;;;;;;9.02;7.07;;;13.70;91.20;;;;;;5067073;28;20777;-88
2021/05/13 07:17:32;;;;;;;8.35;7.13;;;13.80;91.20;;;;;;5081384;28;20232;-88
2021/05/13 07:20:00;;;;;;;7.97;7.00;;;14.00;89.10;;;;;;5059489;28;20197;-88
2021/05/13 07:22:27;;;;;;;11.02;7.18;;;13.90;88.80;;;;;;5086615;28;20236;-89
2021/05/13 07:24:53;;;;;;;8.05;7.10;;;13.80;86.40;;;;;;5080895;28;20284;-89
2021/05/13 07:27:21;;;;;;;6.93;6.22;;;14.20;87.50;;;;;;5075725;28;20297;-92
2021/05/13 07:29:47;;;;;;;11.80;7.43;;;14.40;87.90;;;;;;5067012;28;20236;-91
2021/05/13 07:32:14;;;;;;;8.35;7.43;;;14.20;87.70;;;;;;5064249;28;20719;-92
2021/05/13 07:34:40;;;;;;;11.10;6.85;;;14.00;86.70;;;;;;5066606;28;20196;-89
2021/05/13 07:37:08;;;;;;;7.72;6.55;;;14.20;88.00;;;;;;5076973;28;20304;-91
2021/05/13 07:39:34;;;;;;;13.13;8.40;;;14.40;86.60;;;;;;5073085;28;20273;-91
2021/05/13 07:42:00;;;;;;;9.63;7.03;;;14.70;83.00;;;;;;5080899;28;20242;-88
2021/05/13 07:44:27;;;;;;;10.57;7.22;;;14.60;84.80;;;;;;5072928;28;20231;-88
2021/05/13 07:46:58;;;;;;;9.85;6.97;;;14.60;83.30;;;;;;5072475;28;20624;-89
2021/05/13 07:49:25;;;;;;;13.07;6.70;;;14.50;84.40;;;;;;5073509;28;20194;-88
2021/05/13 07:51:51;;;;;;;7.82;6.55;;;14.60;84.00;;;;;;5075867;28;20237;-90
2021/05/13 07:54:19;;;;;;;9.57;6.70;;;14.40;81.20;;;;;;5068051;28;20196;-89
2021/05/13 07:56:47;;;;;;;8.27;6.38;;;14.30;84.20;;;;;;5070988;28;20768;-86
2021/05/13 07:59:13;;;;;;;10.23;6.25;;;14.50;84.50;;;;;;5076259;28;20201;-88
2021/05/13 08:01:40;;;;;;;9.57;6.53;;;14.80;82.30;;;;;;5075419;28;20229;-87
2021/05/13 08:04:07;;;;;;;8.52;6.00;;;14.90;81.80;;;;;;5086280;28;20205;-86
2021/05/13 08:06:33;;;;;;;10.30;6.20;;;15.00;80.40;;;;;;5075871;28;20328;-87
2021/05/13 08:08:59;;;;;;;9.65;6.28;;;15.20;78.50;;;;;;5083656;28;20201;-87
2021/05/13 08:11:27;;;;;;;11.65;6.75;;;15.00;80.10;;;;;;5077399;28;20230;-87
2021/05/13 08:13:55;;;;;;;7.18;6.25;;;15.10;79.50;;;;;;5070177;28;20206;-87
2021/05/13 08:16:21;;;;;;;13.57;11.48;;;15.00;77.40;;;;;;5069971;28;20585;-91
2021/05/13 08:18:48;;;;;;;8.52;6.20;;;15.50;77.70;;;;;;5069938;28;20219;-92
2021/05/13 08:21:15;;;;;;;11.05;7.57;;;15.20;77.40;;;;;;5076795;28;20193;-89
2021/05/13 08:27:40;;;;;;;8.48;5.70;;;15.70;77.80;;;;;;5079226;28;20230;-89
2021/05/13 08:30:08;;;;;;;9.10;5.95;;;15.60;77.70;;;;;;5746719;22;20254;-92
2021/05/13 08:33:01;;;;;;;10.07;5.75;;;15.50;77.60;;;;;;5059448;28;20238;-92
2021/05/13 08:35:28;;;;;;;7.60;5.25;;;15.60;76.20;;;;;;5058901;28;20202;-92
2021/05/13 08:37:55;;;;;;;6.60;4.57;;;15.90;75.50;;;;;;5049468;28;20198;-92
2021/05/13 08:40:21;;;;;;;9.13;5.18;;;16.20;73.20;;;;;;5060404;28;20312;-92
2021/05/13 08:42:53;;;;;;;8.50;4.75;;;16.40;69.60;;;;;;5050075;28;20627;-92
2021/05/13 08:45:20;;;;;;;8.38;4.82;;;16.20;67.00;;;;;;5075184;28;20190;-92
2021/05/13 08:47:46;;;;;;;9.10;4.95;;;16.20;68.20;;;;;;5066768;28;20687;-91
2021/05/13 08:50:33;;;;;;;5.38;4.78;;;16.10;70.10;;;;;;5076180;28;20193;-91
2021/05/13 08:59:48;;;;;;;7.45;4.80;;;15.50;69.80;;;;;;5078023;28;20660;-88
2021/05/13 09:02:16;;;;;;;7.43;4.57;;;15.10;73.70;;;;;;5085808;28;20232;-87
2021/05/13 09:04:43;;;;;;;8.48;4.93;;;15.40;75.30;;;;;;5086290;28;20663;-90
2021/05/13 09:07:13;;;;;;;10.40;7.82;;;15.70;75.40;;;;;;5066374;28;20234;-87
2021/05/13 09:09:41;;;;;;;17.38;14.13;;;15.80;67.80;;;;;;5062741;28;20224;-87
2021/05/13 09:12:10;;;;;;;7.07;4.82;;;16.00;67.80;;;;;;5041922;28;20566;-86
2021/05/13 09:15:08;;;;;;;12.20;7.63;;;15.90;66.90;;;;;;5043680;28;20656;-86
2021/05/13 09:17:35;;;;;;;9.45;6.07;;;16.00;67.50;;;;;;5063316;28;20198;-86
2021/05/13 09:20:01;;;;;;;15.48;12.25;;;16.10;67.80;;;;;;5062919;28;20202;-86
2021/05/13 09:23:07;;;;;;;8.43;6.32;;;16.40;66.20;;;;;;5078439;28;20243;-86
2021/05/13 09:25:34;;;;;;;8.60;5.82;;;16.40;64.80;;;;;;5101897;28;20245;-86
2021/05/13 09:28:00;;;;;;;6.22;3.58;;;16.50;65.00;;;;;;5104547;28;20210;-85
2021/05/13 09:30:29;;;;;;;7.28;4.03;;;16.40;62.30;;;;;;5101293;28;20254;-86
2021/05/13 09:32:56;;;;;;;4.35;3.38;;;16.10;60.40;;;;;;5094126;28;20232;-86
2021/05/13 09:35:24;;;;;;;5.40;3.30;;;15.80;65.00;;;;;;5106117;28;20226;-87
2021/05/13 09:37:52;;;;;;;6.65;4.47;;;15.40;67.20;;;;;;5105695;28;20213;-88
2021/05/13 09:40:32;;;;;;;7.85;5.07;;;15.20;69.50;;;;;;5096540;28;20442;-92
2021/05/13 09:43:16;;;;;;;7.72;6.85;;;14.90;73.90;;;;;;5087966;28;20213;-87
2021/05/13 09:45:50;;;;;;;5.95;3.42;;;14.80;71.60;;;;;;5095149;28;20249;-90
2021/05/13 09:48:33;;;;;;;7.32;5.03;;;15.00;71.80;;;;;;5093430;28;20199;-89
2021/05/13 09:51:20;;;;;;;7.68;4.53;;;15.40;69.50;;;;;;5098965;28;20578;-92
2021/05/13 09:53:48;;;;;;;7.30;4.10;;;15.90;69.30;;;;;;5092580;28;20204;-91
2021/05/13 09:56:25;;;;;;;6.18;3.60;;;16.30;64.20;;;;;;5086273;28;20640;-89
2021/05/13 09:58:52;;;;;;;6.85;3.65;;;16.30;59.80;;;;;;5090960;28;20280;-88
2021/05/13 10:01:19;;;;;;;7.22;5.40;;;16.20;62.40;;;;;;5090692;28;20255;-88
2021/05/13 10:03:46;;;;;;;5.20;3.72;;;16.10;61.40;;;;;;5098874;28;20272;-87
2021/05/13 10:06:13;;;;;;;5.28;3.33;;;16.00;61.60;;;;;;5096704;28;20224;-88
2021/05/13 10:08:42;;;;;;;21.85;18.05;;;15.50;62.40;;;;;;5095634;28;20224;-88
2021/05/13 10:11:09;;;;;;;15.35;13.13;;;15.20;64.90;;;;;;5096246;28;20711;-87
2021/05/13 10:13:36;;;;;;;38.05;31.38;;;15.50;68.80;;;;;;5091173;28;20211;-90
2021/05/13 10:16:04;;;;;;;11.23;6.20;;;15.40;68.60;;;;;;5090553;28;20301;-90
2021/05/13 10:18:40;;;;;;;7.38;4.10;;;15.30;69.20;;;;;;5090285;28;20204;-90
2021/05/13 10:21:11;;;;;;;7.75;4.55;;;15.20;74.10;;;;;;5090553;28;20220;-90
2021/05/13 10:23:38;;;;;;;5.60;3.92;;;14.60;77.00;;;;;;5091941;28;20197;-90
2021/05/13 10:26:05;;;;;;;7.18;4.03;;;14.00;80.90;;;;;;5093080;28;20660;-88
2021/05/13 10:28:33;;;;;;;5.22;4.45;;;13.60;85.00;;;;;;5155916;22;20228;-93
2021/05/13 10:31:04;;;;;;;5.10;3.08;;;13.30;86.90;;;;;;5074585;28;20316;-92
2021/05/13 10:33:52;;;;;;;4.38;3.05;;;13.40;85.10;;;;;;5083445;28;20216;-93
2021/05/13 10:40:41;;;;;;;5.05;4.05;;;13.40;90.10;;;;;;5005146;28;20242;-91
2021/05/13 10:43:24;;;;;;;5.15;3.35;;;13.80;86.00;;;;;;4974326;28;20648;-91
2021/05/13 10:45:50;;;;;;;6.15;4.28;;;14.30;83.20;;;;;;5000825;28;20239;-90
2021/05/13 10:48:23;;;;;;;4.75;3.60;;;14.50;85.00;;;;;;4995890;28;20541;-90
2021/05/13 10:50:53;;;;;;;5.25;3.97;;;14.60;84.00;;;;;;5051028;28;20225;-92
2021/05/13 10:53:42;;;;;;;4.57;3.50;;;14.70;84.30;;;;;;5074545;28;20205;-93
2021/05/13 10:56:36;;;;;;;4.43;3.60;;;15.20;81.80;;;;;;5073194;28;20251;-92
2021/05/13 10:59:24;;;;;;;4.50;3.28;;;15.40;80.20;;;;;;5075652;28;20563;-93
2021/05/13 11:01:52;;;;;;;5.00;4.20;;;15.80;77.80;;;;;;5076921;28;20683;-90
2021/05/13 11:04:34;;;;;;;6.28;3.95;;;15.70;77.80;;;;;;5078948;28;20212;-90
2021/05/13 11:07:06;;;;;;;6.10;4.10;;;15.40;77.60;;;;;;5078475;28;20255;-90
2021/05/13 11:10:04;;;;;;;7.28;4.32;;;15.60;77.70;;;;;;5081252;28;20197;-89
2021/05/13 11:12:39;;;;;;;6.28;4.47;;;15.80;77.80;;;;;;5065583;28;20255;-91
2021/05/13 11:18:26;;;;;;;6.68;5.20;;;16.10;73.20;;;;;;5069265;28;20240;-90
2021/05/13 11:20:58;;;;;;;8.38;4.53;;;16.30;76.20;;;;;;5078851;28;20216;-91
2021/05/13 11:23:31;;;;;;;4.75;4.13;;;16.10;73.30;;;;;;5080943;28;20197;-89
2021/05/13 11:26:07;;;;;;;8.10;6.03;;;16.00;76.80;;;;;;5078291;28;20559;-91
2021/05/13 11:28:39;;;;;;;12.55;7.68;;;15.90;77.90;;;;;;5073955;28;20719;-89
2021/05/13 11:31:14;;;;;;;18.10;9.38;;;16.10;78.10;;;;;;5051472;28;20232;-93
2021/05/13 11:33:43;;;;;;;27.70;15.75;;;15.70;74.90;;;;;;5046105;28;20194;-92
2021/05/13 11:36:11;;;;;;;17.02;9.55;;;15.60;77.70;;;;;;5048093;28;20272;-93
2021/05/13 11:38:42;;;;;;;39.90;20.92;;;15.40;75.80;;;;;;5044704;28;20202;-94
2021/05/13 11:41:08;;;;;;;36.75;19.95;;;15.30;77.50;;;;;;5051662;28;20305;-91
2021/05/13 11:43:36;;;;;;;16.15;9.70;;;15.30;77.50;;;;;;5047200;28;20193;-89
2021/05/13 11:46:04;;;;;;;7.07;3.95;;;15.00;78.40;;;;;;5053254;28;20318;-91
2021/05/13 11:57:53;;;;;;;8.82;6.20;;;14.10;82.90;;;;;;5061785;28;20197;-90
2021/05/13 12:10:33;;;;;;;32.97;23.27;;;14.40;86.60;;;;;;5046701;28;20262;-89
2021/05/13 12:21:56;;;;;;;32.92;24.38;;;13.90;90.80;;;;;;5070090;28;20238;-88
2021/05/13 12:24:27;;;;;;;16.50;13.38;;;13.80;91.20;;;;;;5056585;28;20197;-88
2021/05/13 12:26:55;;;;;;;32.08;24.40;;;13.80;91.20;;;;;;5064305;28;20234;-89
2021/05/13 12:29:27;;;;;;;14.88;11.57;;;13.80;92.10;;;;;;5056757;28;20236;-91
2021/05/13 12:32:34;;;;;;;11.50;7.95;;;13.80;91.20;;;;;;5057287;28;20229;-91
2021/05/13 12:35:25;;;;;;;24.42;17.05;;;13.90;92.50;;;;;;5044628;28;20209;-91
2021/05/13 12:37:51;;;;;;;13.38;10.10;;;14.00;93.90;;;;;;5061594;28;20716;-89
2021/05/13 12:40:19;;;;;;;8.18;6.45;;;13.90;93.20;;;;;;5063052;28;20627;-90
2021/05/13 12:42:48;;;;;;;128.38;88.80;;;13.90;92.10;;;;;;5062619;28;20214;-89
2021/05/13 12:45:16;;;;;;;27.08;16.52;;;14.20;94.00;;;;;;5059505;28;20201;-90
2021/05/13 12:47:45;;;;;;;76.40;61.90;;;14.30;91.60;;;;;;5063340;28;20265;-89
2021/05/13 12:50:12;;;;;;;58.70;44.10;;;14.50;91.40;;;;;;5054899;28;20290;-90
2021/05/13 12:52:39;;;;;;;33.13;22.80;;;14.70;91.40;;;;;;5062142;28;20688;-88
2021/05/13 12:55:16;;;;;;;23.65;16.00;;;14.80;90.20;;;;;;5059366;28;20194;-89
2021/05/13 12:57:43;;;;;;;5.22;3.95;;;14.80;90.40;;;;;;5053153;28;20717;-89
2021/05/13 13:00:13;;;;;;;22.33;17.02;;;14.70;89.80;;;;;;5055808;28;20205;-89
2021/05/13 13:02:39;;;;;;;17.20;10.85;;;14.80;91.40;;;;;;5054983;28;20222;-89
2021/05/13 13:05:08;;;;;;;15.60;11.00;;;14.90;91.40;;;;;;5052237;28;20206;-89
2021/05/13 13:07:36;;;;;;;12.98;8.35;;;15.00;90.30;;;;;;5056693;28;20237;-90
2021/05/13 13:10:23;;;;;;;6.57;4.70;;;15.20;92.10;;;;;;5063559;28;20209;-89
2021/05/13 13:13:04;;;;;;;8.77;5.97;;;15.20;89.00;;;;;;5055183;28;20277;-89
2021/05/13 13:15:34;;;;;;;15.20;10.52;;;15.30;90.30;;;;;;5050100;28;20201;-88
2021/05/13 13:18:03;;;;;;;9.27;6.72;;;15.50;90.30;;;;;;5062926;28;20220;-87
2021/05/13 13:20:29;;;;;;;12.57;8.55;;;15.50;89.10;;;;;;5062225;28;20214;-86
2021/05/13 13:25:43;;;;;;;24.48;14.77;;;15.50;90.30;;;;;;5043208;28;20205;-87
2021/05/13 13:28:09;;;;;;;4.63;2.85;;;15.50;90.50;;;;;;5059033;28;20225;-87
2021/05/13 13:30:37;;;;;;;3.33;2.60;;;15.30;82.80;;;;;;5053920;28;20613;-89
2021/05/13 13:33:15;;;;;;;2.72;2.08;;;15.40;84.00;;;;;;5058738;28;20668;-88
2021/05/13 13:35:41;;;;;;;2.80;2.58;;;15.30;82.90;;;;;;5053778;28;20207;-87
2021/05/13 13:38:10;;;;;;;2.92;2.50;;;15.30;85.20;;;;;;5052363;28;20205;-87
2021/05/13 13:40:37;;;;;;;2.83;2.35;;;15.40;84.70;;;;;;5048339;28;20201;-88
2021/05/13 13:43:04;;;;;;;2.88;2.50;;;15.50;85.20;;;;;;5057747;28;20202;-87
2021/05/13 13:45:31;;;;;;;2.53;2.33;;;15.50;83.60;;;;;;5060734;28;20212;-90